createdAt,value
2019-05-15T00:00:12.194Z,14.43
2019-05-15T00:01:19.253Z,14.46
2019-05-15T00:02:24.926Z,14.13
2019-05-15T00:03:29.670Z,14.18
2019-05-15T00:04:35.509Z,14.29
2019-05-15T00:05:40.487Z,14.30
2019-05-15T00:06:48.538Z,14.30
2019-05-15T00:07:59.358Z,14.19
2019-05-15T00:09:07.977Z,14.25
2019-05-15T00:10:12.828Z,14.43
2019-05-15T00:11:19.212Z,14.15
2019-05-15T00:12:24.424Z,14.27
2019-05-15T00:13:30.134Z,14.14
2019-05-15T00:14:35.489Z,14.08
2019-05-15T00:15:41.055Z,13.70
2019-05-15T00:16:48.188Z,13.96
2019-05-15T00:17:53.709Z,14.13
2019-05-15T00:18:59.146Z,14.10
2019-05-15T00:20:04.530Z,14.05
2019-05-15T00:21:09.572Z,13.70
2019-05-15T00:22:15.138Z,13.99
2019-05-15T00:23:20.520Z,14.31
2019-05-15T00:24:28.631Z,14.48
2019-05-15T00:25:34.298Z,14.48
2019-05-15T00:26:39.861Z,14.03
2019-05-15T00:27:44.691Z,13.95
2019-05-15T00:28:49.955Z,13.80
2019-05-15T00:29:57.820Z,13.86
2019-05-15T00:31:02.803Z,13.75
2019-05-15T00:32:09.187Z,13.86
2019-05-15T00:33:15.268Z,13.74
2019-05-15T00:34:20.543Z,13.81
2019-05-15T00:35:28.619Z,13.95
2019-05-15T00:36:33.398Z,14.21
2019-05-15T00:37:39.179Z,14.17
2019-05-15T00:38:44.251Z,14.18
2019-05-15T00:39:50.065Z,13.93
2019-05-15T00:40:55.378Z,14.13
2019-05-15T00:42:00.904Z,14.03
2019-05-15T00:43:05.841Z,13.71
2019-05-15T00:44:11.408Z,13.96
2019-05-15T00:45:18.431Z,13.76
2019-05-15T00:46:23.880Z,13.85
2019-05-15T00:47:28.901Z,13.69
2019-05-15T00:48:34.476Z,13.70
2019-05-15T00:49:39.294Z,13.82
2019-05-15T00:50:44.851Z,13.80
2019-05-15T00:51:49.834Z,13.69
2019-05-15T00:52:55.443Z,13.52
2019-05-15T00:54:00.561Z,13.39
2019-05-15T00:55:08.622Z,13.56
2019-05-15T00:56:13.314Z,13.51
2019-05-15T00:57:19.311Z,13.34
2019-05-15T00:58:24.217Z,13.44
2019-05-15T00:59:30.222Z,13.56
2019-05-15T01:00:41.387Z,13.56
2019-05-15T01:01:48.732Z,13.53
2019-05-15T01:02:53.652Z,13.43
2019-05-15T01:03:59.251Z,13.40
2019-05-15T01:05:04.357Z,13.23
2019-05-15T01:06:09.884Z,13.26
2019-05-15T01:07:14.874Z,13.06
2019-05-15T01:08:20.147Z,13.06
2019-05-15T01:09:25.752Z,13.07
2019-05-15T01:10:31.394Z,13.40
2019-05-15T01:11:38.194Z,13.45
2019-05-15T01:12:43.817Z,13.53
2019-05-15T01:13:48.816Z,13.22
2019-05-15T01:14:58.326Z,13.17
2019-05-15T01:16:03.745Z,13.22
2019-05-15T01:17:09.326Z,13.10
2019-05-15T01:18:14.255Z,13.30
2019-05-15T01:19:19.838Z,13.23
2019-05-15T01:20:24.940Z,13.16
2019-05-15T01:21:30.171Z,13.14
2019-05-15T01:22:35.700Z,13.15
2019-05-15T01:23:41.871Z,13.19
2019-05-15T01:24:48.541Z,12.97
2019-05-15T01:25:54.212Z,12.73
2019-05-15T01:27:00.032Z,13.02
2019-05-15T01:28:06.129Z,12.85
2019-05-15T01:29:11.393Z,13.24
2019-05-15T01:30:17.979Z,13.21
2019-05-15T01:31:23.485Z,13.15
2019-05-15T01:32:28.814Z,13.03
2019-05-15T01:33:33.783Z,13.13
2019-05-15T01:34:39.018Z,12.81
2019-05-15T01:35:44.323Z,12.94
2019-05-15T01:36:49.550Z,12.97
2019-05-15T01:37:54.816Z,13.03
2019-05-15T01:39:00.436Z,12.93
2019-05-15T01:40:05.502Z,13.21
2019-05-15T01:41:11.354Z,13.15
2019-05-15T01:42:18.575Z,13.07
2019-05-15T01:43:23.951Z,13.01
2019-05-15T01:44:29.624Z,13.07
2019-05-15T01:45:35.146Z,12.78
2019-05-15T01:46:39.856Z,12.88
2019-05-15T01:47:45.168Z,13.05
2019-05-15T01:48:50.444Z,13.01
2019-05-15T01:49:58.297Z,12.84
2019-05-15T01:51:03.289Z,12.76
2019-05-15T01:52:08.820Z,12.95
2019-05-15T01:53:14.062Z,12.92
2019-05-15T01:54:19.948Z,13.01
2019-05-15T01:55:24.939Z,12.86
2019-05-15T01:56:30.486Z,12.69
2019-05-15T01:57:38.156Z,12.96
2019-05-15T01:58:43.251Z,13.03
2019-05-15T01:59:57.009Z,13.15
2019-05-15T02:00:55.591Z,12.69
2019-05-15T02:02:00.316Z,12.66
2019-05-15T02:03:06.125Z,12.73
2019-05-15T02:04:10.871Z,12.72
2019-05-15T02:05:16.111Z,12.92
2019-05-15T02:06:21.346Z,12.94
2019-05-15T02:07:28.070Z,12.88
2019-05-15T02:08:33.245Z,12.97
2019-05-15T02:09:38.775Z,12.64
2019-05-15T02:10:43.492Z,12.69
2019-05-15T02:11:49.014Z,12.53
2019-05-15T02:12:54.074Z,12.40
2019-05-15T02:13:59.586Z,12.53
2019-05-15T02:15:04.287Z,12.37
2019-05-15T02:16:09.934Z,12.46
2019-05-15T02:17:15.460Z,12.36
2019-05-15T02:18:20.991Z,12.37
2019-05-15T02:19:26.036Z,12.40
2019-05-15T02:20:31.353Z,12.64
2019-05-15T02:21:37.984Z,12.49
2019-05-15T02:22:43.142Z,12.61
2019-05-15T02:23:48.383Z,12.50
2019-05-15T02:24:54.624Z,12.09
2019-05-15T02:26:00.126Z,12.31
2019-05-15T02:27:05.981Z,12.47
2019-05-15T02:28:10.942Z,12.27
2019-05-15T02:29:20.357Z,12.28
2019-05-15T02:30:28.875Z,12.35
2019-05-15T02:31:31.132Z,12.23
2019-05-15T02:32:39.591Z,12.06
2019-05-15T02:33:44.015Z,12.19
2019-05-15T02:34:50.052Z,12.17
2019-05-15T02:35:56.193Z,12.22
2019-05-15T02:37:01.207Z,12.32
2019-05-15T02:38:10.161Z,12.50
2019-05-15T02:39:13.379Z,12.26
2019-05-15T02:40:19.273Z,12.46
2019-05-15T02:41:24.572Z,12.25
2019-05-15T02:42:29.901Z,12.10
2019-05-15T02:43:35.144Z,12.04
2019-05-15T02:44:40.694Z,12.06
2019-05-15T02:45:45.981Z,11.99
2019-05-15T02:46:51.517Z,12.02
2019-05-15T02:47:59.479Z,12.08
2019-05-15T02:49:03.862Z,11.97
2019-05-15T02:50:10.599Z,11.82
2019-05-15T02:51:19.120Z,12.09
2019-05-15T02:52:22.903Z,11.82
2019-05-15T02:53:29.884Z,12.02
2019-05-15T02:54:35.381Z,11.92
2019-05-15T02:55:40.831Z,11.86
2019-05-15T02:56:49.362Z,11.86
2019-05-15T02:57:54.451Z,12.05
2019-05-15T02:59:00.150Z,11.84
2019-05-15T03:00:05.924Z,11.70
2019-05-15T03:01:10.901Z,11.71
2019-05-15T03:02:19.005Z,11.90
2019-05-15T03:03:22.874Z,11.95
2019-05-15T03:04:29.092Z,11.83
2019-05-15T03:05:33.868Z,11.94
2019-05-15T03:06:39.277Z,11.81
2019-05-15T03:07:44.290Z,11.63
2019-05-15T03:08:49.922Z,11.76
2019-05-15T03:09:55.094Z,11.65
2019-05-15T03:11:00.384Z,11.85
2019-05-15T03:12:05.175Z,11.52
2019-05-15T03:13:10.370Z,11.70
2019-05-15T03:14:15.771Z,11.59
2019-05-15T03:15:21.306Z,11.68
2019-05-15T03:16:30.114Z,11.54
2019-05-15T03:17:33.669Z,11.63
2019-05-15T03:18:39.785Z,11.71
2019-05-15T03:19:45.637Z,11.69
2019-05-15T03:20:50.940Z,11.61
2019-05-15T03:21:59.649Z,11.76
2019-05-15T03:23:03.382Z,11.75
2019-05-15T03:24:10.132Z,11.71
2019-05-15T03:25:15.157Z,11.60
2019-05-15T03:26:20.471Z,11.81
2019-05-15T03:27:25.586Z,11.83
2019-05-15T03:28:31.299Z,11.67
2019-05-15T03:29:40.000Z,11.81
2019-05-15T03:31:12.229Z,11.59
2019-05-15T03:32:06.441Z,11.45
2019-05-15T03:33:07.856Z,11.17
2019-05-15T03:34:04.363Z,11.38
2019-05-15T03:35:14.712Z,11.37
2019-05-15T03:36:22.260Z,11.20
2019-05-15T03:37:23.913Z,11.40
2019-05-15T03:38:29.857Z,11.36
2019-05-15T03:39:38.624Z,11.14
2019-05-15T03:40:42.844Z,11.07
2019-05-15T03:41:49.711Z,11.03
2019-05-15T03:42:55.143Z,11.22
2019-05-15T03:44:00.955Z,11.26
2019-05-15T03:45:09.631Z,11.06
2019-05-15T03:46:14.056Z,11.29
2019-05-15T03:47:19.617Z,11.01
2019-05-15T03:48:28.586Z,10.87
2019-05-15T03:49:32.532Z,10.98
2019-05-15T03:50:40.247Z,11.05
2019-05-15T03:51:45.885Z,10.90
2019-05-15T03:52:51.893Z,10.90
2019-05-15T03:54:00.079Z,10.84
2019-05-15T03:55:03.704Z,11.18
2019-05-15T03:56:09.773Z,10.93
2019-05-15T03:57:20.058Z,11.20
2019-05-15T03:58:22.976Z,11.16
2019-05-15T03:59:29.460Z,11.21
2019-05-15T04:00:34.153Z,11.02
2019-05-15T04:01:43.568Z,11.13
2019-05-15T04:02:48.643Z,11.18
2019-05-15T04:03:52.871Z,11.07
2019-05-15T04:05:01.565Z,11.07
2019-05-15T04:06:05.240Z,10.96
2019-05-15T04:07:10.301Z,10.93
2019-05-15T04:08:19.157Z,10.97
2019-05-15T04:09:23.416Z,11.18
2019-05-15T04:10:29.016Z,11.22
2019-05-15T04:11:34.362Z,10.76
2019-05-15T04:12:40.987Z,10.83
2019-05-15T04:13:49.760Z,10.54
2019-05-15T04:14:53.529Z,10.60
2019-05-15T04:15:59.379Z,10.99
2019-05-15T04:17:04.659Z,10.68
2019-05-15T04:18:10.042Z,11.07
2019-05-15T04:19:18.847Z,10.94
2019-05-15T04:20:21.737Z,10.77
2019-05-15T04:21:30.392Z,11.01
2019-05-15T04:22:34.814Z,11.02
2019-05-15T04:23:41.230Z,11.36
2019-05-15T04:24:49.383Z,11.38
2019-05-15T04:25:54.634Z,11.30
2019-05-15T04:27:00.815Z,11.26
2019-05-15T04:28:10.176Z,11.15
2019-05-15T04:29:15.583Z,11.18
2019-05-15T04:30:20.621Z,10.97
2019-05-15T04:31:25.660Z,11.20
2019-05-15T04:32:31.827Z,11.27
2019-05-15T04:33:39.916Z,11.26
2019-05-15T04:34:44.570Z,11.24
2019-05-15T04:35:49.808Z,11.28
2019-05-15T04:36:55.197Z,11.40
2019-05-15T04:37:59.986Z,11.30
2019-05-15T04:39:09.830Z,11.20
2019-05-15T04:40:14.271Z,11.32
2019-05-15T04:41:20.247Z,11.15
2019-05-15T04:42:25.609Z,10.90
2019-05-15T04:43:39.662Z,11.12
2019-05-15T04:44:39.487Z,11.35
2019-05-15T04:45:45.032Z,11.33
2019-05-15T04:46:50.146Z,11.53
2019-05-15T04:47:58.757Z,11.34
2019-05-15T04:49:02.751Z,11.39
2019-05-15T04:50:09.138Z,11.53
2019-05-15T04:51:14.399Z,11.44
2019-05-15T04:52:20.266Z,11.38
2019-05-15T04:53:25.610Z,11.77
2019-05-15T04:54:31.505Z,11.89
2019-05-15T04:55:35.990Z,11.74
2019-05-15T04:56:41.646Z,11.77
2019-05-15T04:57:49.963Z,12.12
2019-05-15T04:58:54.324Z,12.16
2019-05-15T04:59:59.140Z,12.24
2019-05-15T05:01:04.427Z,12.43
2019-05-15T05:02:17.172Z,12.13
2019-05-15T05:03:19.805Z,12.43
2019-05-15T05:04:23.875Z,12.67
2019-05-15T05:05:29.603Z,12.49
2019-05-15T05:06:38.619Z,12.47
2019-05-15T05:07:43.278Z,12.47
2019-05-15T05:08:49.131Z,12.62
2019-05-15T05:09:54.767Z,12.85
2019-05-15T05:11:00.010Z,12.55
2019-05-15T05:12:05.308Z,12.71
2019-05-15T05:13:10.310Z,12.76
2019-05-15T05:14:18.657Z,12.72
2019-05-15T05:15:23.054Z,12.83
2019-05-15T05:16:29.478Z,13.00
2019-05-15T05:17:34.646Z,13.19
2019-05-15T05:18:41.532Z,13.29
2019-05-15T05:19:47.889Z,13.30
2019-05-15T05:20:54.079Z,13.15
2019-05-15T05:21:58.839Z,13.63
2019-05-15T05:23:04.146Z,13.78
2019-05-15T05:24:08.877Z,13.93
2019-05-15T05:25:14.487Z,13.83
2019-05-15T05:26:19.368Z,14.01
2019-05-15T05:27:24.668Z,14.09
2019-05-15T05:28:30.318Z,14.20
2019-05-15T05:29:38.460Z,14.15
2019-05-15T05:30:42.659Z,13.98
2019-05-15T05:31:49.085Z,14.04
2019-05-15T05:32:53.878Z,14.16
2019-05-15T05:33:59.679Z,13.89
2019-05-15T05:35:05.354Z,13.93
2019-05-15T05:36:10.899Z,14.22
2019-05-15T05:37:18.129Z,14.31
2019-05-15T05:38:23.284Z,14.33
2019-05-15T05:39:29.430Z,14.20
2019-05-15T05:40:35.152Z,14.29
2019-05-15T05:41:40.814Z,14.36
2019-05-15T05:42:47.938Z,14.23
2019-05-15T05:43:52.629Z,14.41
2019-05-15T05:44:58.574Z,14.48
2019-05-15T05:46:03.090Z,14.62
2019-05-15T05:47:09.398Z,14.73
2019-05-15T05:48:14.224Z,14.60
2019-05-15T05:49:19.243Z,14.77
2019-05-15T05:50:43.819Z,14.85
2019-05-15T05:51:48.231Z,14.86
2019-05-15T05:52:53.460Z,15.12
2019-05-15T05:53:59.179Z,15.27
2019-05-15T05:55:04.167Z,15.38
2019-05-15T05:56:09.451Z,15.48
2019-05-15T05:57:14.495Z,15.70
2019-05-15T05:58:19.990Z,15.80
2019-05-15T05:59:25.554Z,15.96
2019-05-15T06:00:39.355Z,15.99
2019-05-15T06:01:44.481Z,16.14
2019-05-15T06:02:52.375Z,16.07
2019-05-15T06:03:58.168Z,16.33
2019-05-15T06:05:03.624Z,16.49
2019-05-15T06:06:09.747Z,16.69
2019-05-15T06:07:18.318Z,16.62
2019-05-15T06:08:22.600Z,16.66
2019-05-15T06:09:28.181Z,16.84
2019-05-15T06:10:33.201Z,17.00
2019-05-15T06:11:38.742Z,17.27
2019-05-15T06:12:44.077Z,17.26
2019-05-15T06:13:52.505Z,17.36
2019-05-15T06:14:58.052Z,18.12
2019-05-15T06:16:03.712Z,19.83
2019-05-15T06:17:08.770Z,22.22
2019-05-15T06:18:14.395Z,23.93
2019-05-15T06:19:19.838Z,25.15
2019-05-15T06:20:25.135Z,25.97
2019-05-15T06:21:29.936Z,26.70
2019-05-15T06:22:35.541Z,27.16
2019-05-15T06:23:45.658Z,27.80
2019-05-15T06:24:48.509Z,28.68
2019-05-15T06:25:54.057Z,28.87
2019-05-15T06:26:59.694Z,29.36
2019-05-15T06:28:04.488Z,29.36
2019-05-15T06:29:10.231Z,29.54
2019-05-15T06:30:22.202Z,30.25
2019-05-15T06:31:22.667Z,29.86
2019-05-15T06:32:28.952Z,30.47
2019-05-15T06:33:34.676Z,31.18
2019-05-15T06:34:40.015Z,31.49
2019-05-15T06:35:45.567Z,31.32
2019-05-15T06:36:50.717Z,31.93
2019-05-15T06:37:59.104Z,31.93
2019-05-15T06:39:08.331Z,31.61
2019-05-15T06:40:12.902Z,32.46
2019-05-15T06:41:18.485Z,32.28
2019-05-15T06:42:23.829Z,32.04
2019-05-15T06:43:28.835Z,32.54
2019-05-15T06:44:34.420Z,33.05
2019-05-15T06:45:40.981Z,32.50
2019-05-15T06:46:48.359Z,32.57
2019-05-15T06:47:53.399Z,33.10
2019-05-15T06:48:59.143Z,33.47
2019-05-15T06:50:04.106Z,33.44
2019-05-15T06:51:09.910Z,33.44
2019-05-15T06:52:14.408Z,32.15
2019-05-15T06:53:19.807Z,29.00
2019-05-15T06:54:25.148Z,31.33
2019-05-15T06:55:30.770Z,30.69
2019-05-15T06:56:38.636Z,30.36
2019-05-15T06:57:43.369Z,29.86
2019-05-15T06:58:48.711Z,29.27
2019-05-15T06:59:54.652Z,28.64
2019-05-15T07:00:59.639Z,28.78
2019-05-15T07:02:04.727Z,27.46
2019-05-15T07:03:20.115Z,27.77
2019-05-15T07:04:18.169Z,27.77
2019-05-15T07:05:22.597Z,26.45
2019-05-15T07:06:28.690Z,27.50
2019-05-15T07:07:33.753Z,28.34
2019-05-15T07:08:39.423Z,30.25
2019-05-15T07:09:44.168Z,29.63
2019-05-15T07:10:50.096Z,29.33
2019-05-15T07:11:55.401Z,29.86
2019-05-15T07:13:00.429Z,30.71
2019-05-15T07:14:05.380Z,32.32
2019-05-15T07:15:10.648Z,30.81
2019-05-15T07:16:18.053Z,32.39
2019-05-15T07:17:23.093Z,29.50
2019-05-15T07:18:28.453Z,31.63
2019-05-15T07:19:33.909Z,33.19
2019-05-15T07:20:39.234Z,34.20
2019-05-15T07:21:45.103Z,34.01
2019-05-15T07:22:50.399Z,34.27
2019-05-15T07:23:58.385Z,34.79
2019-05-15T07:25:03.110Z,35.90
2019-05-15T07:26:09.422Z,36.04
2019-05-15T07:27:14.630Z,34.96
2019-05-15T07:28:20.540Z,36.58
2019-05-15T07:29:25.829Z,37.33
2019-05-15T07:30:31.376Z,37.52
2019-05-15T07:31:38.219Z,37.36
2019-05-15T07:32:43.726Z,37.40
2019-05-15T07:33:49.266Z,37.45
2019-05-15T07:34:54.753Z,37.05
2019-05-15T07:35:59.306Z,37.39
2019-05-15T07:37:04.909Z,37.77
2019-05-15T07:38:09.892Z,36.17
2019-05-15T07:39:15.158Z,36.53
2019-05-15T07:40:20.417Z,35.92
2019-05-15T07:41:28.554Z,34.47
2019-05-15T07:42:33.289Z,37.32
2019-05-15T07:43:38.843Z,37.40
2019-05-15T07:44:43.923Z,37.95
2019-05-15T07:45:54.221Z,36.23
2019-05-15T07:46:58.393Z,33.93
2019-05-15T07:48:04.022Z,36.17
2019-05-15T07:49:09.370Z,37.74
2019-05-15T07:50:16.495Z,38.37
2019-05-15T07:51:21.861Z,38.51
2019-05-15T07:52:28.864Z,39.67
2019-05-15T07:53:33.704Z,39.50
2019-05-15T07:54:39.631Z,38.63
2019-05-15T07:55:44.641Z,38.70
2019-05-15T07:56:50.298Z,38.87
2019-05-15T07:57:55.238Z,39.71
2019-05-15T07:59:00.862Z,39.99
2019-05-15T08:00:08.310Z,37.21
2019-05-15T08:01:14.439Z,39.65
2019-05-15T08:02:19.702Z,38.55
2019-05-15T08:03:25.537Z,39.73
2019-05-15T08:04:32.890Z,37.25
2019-05-15T08:05:38.214Z,38.91
2019-05-15T08:06:43.457Z,38.93
2019-05-15T08:07:49.136Z,38.67
2019-05-15T08:08:53.661Z,39.56
2019-05-15T08:09:59.630Z,40.50
2019-05-15T08:11:17.433Z,41.20
2019-05-15T08:12:11.632Z,41.14
2019-05-15T08:13:18.514Z,41.37
2019-05-15T08:14:23.694Z,39.94
2019-05-15T08:15:28.822Z,41.09
2019-05-15T08:16:34.092Z,40.92
2019-05-15T08:17:58.489Z,40.00
2019-05-15T08:18:48.440Z,40.45
2019-05-15T08:19:53.554Z,40.81
2019-05-15T08:20:59.057Z,40.17
2019-05-15T08:22:04.600Z,40.15
2019-05-15T08:23:09.869Z,41.12
2019-05-15T08:24:14.600Z,39.86
2019-05-15T08:25:31.214Z,42.34
2019-05-15T08:26:28.309Z,40.67
2019-05-15T08:27:34.015Z,42.11
2019-05-15T08:28:38.744Z,42.68
2019-05-15T08:29:44.604Z,41.30
2019-05-15T08:30:50.034Z,38.50
2019-05-15T08:31:55.448Z,40.13
2019-05-15T08:33:00.755Z,41.60
2019-05-15T08:34:15.194Z,41.09
2019-05-15T08:35:12.918Z,41.41
2019-05-15T08:36:18.312Z,42.33
2019-05-15T08:37:23.305Z,42.58
2019-05-15T08:38:29.009Z,42.93
2019-05-15T08:39:34.390Z,44.18
2019-05-15T08:40:41.002Z,41.46
2019-05-15T08:41:48.371Z,42.59
2019-05-15T08:42:58.068Z,42.36
2019-05-15T08:44:00.418Z,43.13
2019-05-15T08:45:05.910Z,41.89
2019-05-15T08:46:10.680Z,43.73
2019-05-15T08:47:18.944Z,42.36
2019-05-15T08:48:23.240Z,41.44
2019-05-15T08:49:28.806Z,42.89
2019-05-15T08:50:33.685Z,42.50
2019-05-15T08:51:39.526Z,43.41
2019-05-15T08:52:44.219Z,43.78
2019-05-15T08:53:49.549Z,41.99
2019-05-15T08:54:55.228Z,42.25
2019-05-15T08:56:01.073Z,43.40
2019-05-15T08:57:08.487Z,42.48
2019-05-15T08:58:14.046Z,44.57
2019-05-15T08:59:19.577Z,43.73
2019-05-15T09:00:25.735Z,44.45
2019-05-15T09:01:30.503Z,44.57
2019-05-15T09:02:38.103Z,44.16
2019-05-15T09:03:42.738Z,44.52
2019-05-15T09:04:48.645Z,43.69
2019-05-15T09:05:54.107Z,44.44
2019-05-15T09:07:01.247Z,44.05
2019-05-15T09:08:09.086Z,44.54
2019-05-15T09:09:13.679Z,44.89
2019-05-15T09:10:18.602Z,43.98
2019-05-15T09:11:24.123Z,43.15
2019-05-15T09:12:29.417Z,44.29
2019-05-15T09:13:34.617Z,44.15
2019-05-15T09:14:39.608Z,44.74
2019-05-15T09:15:44.870Z,43.41
2019-05-15T09:16:49.849Z,44.86
2019-05-15T09:18:08.044Z,43.85
2019-05-15T09:19:01.985Z,45.37
2019-05-15T09:20:08.204Z,45.60
2019-05-15T09:21:13.000Z,45.60
2019-05-15T09:22:18.749Z,43.78
2019-05-15T09:23:24.489Z,44.16
2019-05-15T09:24:29.564Z,45.44
2019-05-15T09:25:34.669Z,45.18
2019-05-15T09:26:40.650Z,44.87
2019-05-15T09:27:45.173Z,43.82
2019-05-15T09:28:50.738Z,43.97
2019-05-15T09:29:55.671Z,44.62
2019-05-15T09:31:01.217Z,44.48
2019-05-15T09:32:08.628Z,45.67
2019-05-15T09:33:13.961Z,45.70
2019-05-15T09:34:18.764Z,45.61
2019-05-15T09:35:23.735Z,45.94
2019-05-15T09:36:28.871Z,45.12
2019-05-15T09:37:34.552Z,45.30
2019-05-15T09:38:40.028Z,45.08
2019-05-15T09:39:45.631Z,41.39
2019-05-15T09:40:51.238Z,45.16
2019-05-15T09:41:57.903Z,45.20
2019-05-15T09:43:02.749Z,43.00
2019-05-15T09:44:08.525Z,43.91
2019-05-15T09:45:13.175Z,44.93
2019-05-15T09:46:18.785Z,45.53
2019-05-15T09:47:23.555Z,45.52
2019-05-15T09:48:29.036Z,45.50
2019-05-15T09:49:34.281Z,45.84
2019-05-15T09:50:39.775Z,46.02
2019-05-15T09:51:44.942Z,44.23
2019-05-15T09:52:50.354Z,45.64
2019-05-15T09:53:55.409Z,45.58
2019-05-15T09:55:00.966Z,45.59
2019-05-15T09:56:07.980Z,45.90
2019-05-15T09:57:13.006Z,45.67
2019-05-15T09:58:20.334Z,45.45
2019-05-15T09:59:24.736Z,45.96
2019-05-15T10:00:29.964Z,45.38
2019-05-15T10:01:35.478Z,45.55
2019-05-15T10:02:40.195Z,45.95
2019-05-15T10:03:48.260Z,45.75
2019-05-15T10:05:05.448Z,44.83
2019-05-15T10:05:59.550Z,41.81
2019-05-15T10:07:04.339Z,43.70
2019-05-15T10:08:10.190Z,46.19
2019-05-15T10:09:14.886Z,46.26
2019-05-15T10:10:20.822Z,45.51
2019-05-15T10:11:28.732Z,45.77
2019-05-15T10:12:35.151Z,45.81
2019-05-15T10:13:40.492Z,47.18
2019-05-15T10:14:48.942Z,47.11
2019-05-15T10:15:52.384Z,47.51
2019-05-15T10:16:58.482Z,46.71
2019-05-15T10:18:03.221Z,44.48
2019-05-15T10:19:09.167Z,44.58
2019-05-15T10:20:14.266Z,45.73
2019-05-15T10:21:19.289Z,45.68
2019-05-15T10:22:24.307Z,45.49
2019-05-15T10:23:29.915Z,44.38
2019-05-15T10:24:35.301Z,44.98
2019-05-15T10:25:40.885Z,44.56
2019-05-15T10:26:45.568Z,46.45
2019-05-15T10:27:51.467Z,45.86
2019-05-15T10:28:58.280Z,46.65
2019-05-15T10:30:02.960Z,47.73
2019-05-15T10:31:09.381Z,47.98
2019-05-15T10:32:15.259Z,47.04
2019-05-15T10:33:20.551Z,46.68
2019-05-15T10:34:26.244Z,45.17
2019-05-15T10:35:31.848Z,44.65
2019-05-15T10:36:38.688Z,45.15
2019-05-15T10:37:43.819Z,45.56
2019-05-15T10:38:49.279Z,45.20
2019-05-15T10:39:54.323Z,45.13
2019-05-15T10:41:08.557Z,45.85
2019-05-15T10:42:08.238Z,44.77
2019-05-15T10:43:13.559Z,42.71
2019-05-15T10:44:18.854Z,45.08
2019-05-15T10:45:23.914Z,44.74
2019-05-15T10:46:28.375Z,45.71
2019-05-15T10:47:33.945Z,45.02
2019-05-15T10:48:38.676Z,46.04
2019-05-15T10:49:44.662Z,46.30
2019-05-15T10:50:49.428Z,44.81
2019-05-15T10:51:55.102Z,46.30
2019-05-15T10:53:00.470Z,46.20
2019-05-15T10:54:08.604Z,46.31
2019-05-15T10:55:13.798Z,47.21
2019-05-15T10:56:19.431Z,48.15
2019-05-15T10:57:27.914Z,44.68
2019-05-15T10:58:33.852Z,45.93
2019-05-15T10:59:40.608Z,45.06
2019-05-15T11:00:49.016Z,45.59
2019-05-15T11:01:52.696Z,45.94
2019-05-15T11:02:58.400Z,45.30
2019-05-15T11:04:03.151Z,46.38
2019-05-15T11:05:09.595Z,45.27
2019-05-15T11:06:14.832Z,44.95
2019-05-15T11:07:20.695Z,44.25
2019-05-15T11:08:28.958Z,45.89
2019-05-15T11:09:33.886Z,45.04
2019-05-15T11:10:41.871Z,45.07
2019-05-15T11:11:48.689Z,46.01
2019-05-15T11:12:53.793Z,46.90
2019-05-15T11:14:00.558Z,47.24
2019-05-15T11:15:05.529Z,47.52
2019-05-15T11:16:11.053Z,46.83
2019-05-15T11:17:16.687Z,46.10
2019-05-15T11:18:22.239Z,46.50
2019-05-15T11:19:35.678Z,45.84
2019-05-15T11:20:33.981Z,45.97
2019-05-15T11:21:38.456Z,47.15
2019-05-15T11:22:44.077Z,47.08
2019-05-15T11:23:49.490Z,45.89
2019-05-15T11:24:54.817Z,46.58
2019-05-15T11:25:59.551Z,46.43
2019-05-15T11:27:05.121Z,44.97
2019-05-15T11:28:09.852Z,45.31
2019-05-15T11:29:15.355Z,45.50
2019-05-15T11:30:20.077Z,46.60
2019-05-15T11:31:25.608Z,46.34
2019-05-15T11:32:30.752Z,47.61
2019-05-15T11:33:38.459Z,47.76
2019-05-15T11:34:43.520Z,46.31
2019-05-15T11:36:01.256Z,46.62
2019-05-15T11:36:55.783Z,46.76
2019-05-15T11:38:01.060Z,47.25
2019-05-15T11:39:08.426Z,45.69
2019-05-15T11:40:15.349Z,47.45
2019-05-15T11:41:20.851Z,46.95
2019-05-15T11:42:28.883Z,46.85
2019-05-15T11:43:33.395Z,47.17
2019-05-15T11:44:39.082Z,46.23
2019-05-15T11:45:44.052Z,45.43
2019-05-15T11:46:49.911Z,45.32
2019-05-15T11:47:54.887Z,46.08
2019-05-15T11:49:00.468Z,45.09
2019-05-15T11:50:08.206Z,44.62
2019-05-15T11:51:12.681Z,46.39
2019-05-15T11:52:18.872Z,46.76
2019-05-15T11:53:24.055Z,48.08
2019-05-15T11:54:28.745Z,46.44
2019-05-15T11:55:33.980Z,48.15
2019-05-15T11:56:39.418Z,48.01
2019-05-15T11:57:47.577Z,48.67
2019-05-15T11:58:52.011Z,47.47
2019-05-15T11:59:59.570Z,46.36
2019-05-15T12:01:04.239Z,48.14
2019-05-15T12:02:09.507Z,46.11
2019-05-15T12:03:14.764Z,44.83
2019-05-15T12:04:30.173Z,46.67
2019-05-15T12:05:28.768Z,46.80
2019-05-15T12:06:34.602Z,43.05
2019-05-15T12:07:39.836Z,43.86
2019-05-15T12:08:45.381Z,40.98
2019-05-15T12:09:50.395Z,38.02
2019-05-15T12:10:59.221Z,34.52
2019-05-15T12:12:03.272Z,34.14
2019-05-15T12:13:09.872Z,33.52
2019-05-15T12:14:14.847Z,32.42
2019-05-15T12:15:21.329Z,31.54
2019-05-15T12:16:28.802Z,32.18
2019-05-15T12:17:34.243Z,31.01
2019-05-15T12:18:39.328Z,31.26
2019-05-15T12:19:55.097Z,30.66
2019-05-15T12:20:51.698Z,30.40
2019-05-15T12:21:59.786Z,30.06
2019-05-15T12:23:03.943Z,30.91
2019-05-15T12:24:10.111Z,30.70
2019-05-15T12:25:14.953Z,30.62
2019-05-15T12:26:20.502Z,30.77
2019-05-15T12:27:30.538Z,30.23
2019-05-15T12:28:43.650Z,29.71
2019-05-15T12:29:52.680Z,30.05
2019-05-15T12:31:00.965Z,29.76
2019-05-15T12:32:23.394Z,29.39
2019-05-15T12:33:13.635Z,30.04
2019-05-15T12:34:19.125Z,29.55
2019-05-15T12:35:24.757Z,29.38
2019-05-15T12:36:50.754Z,29.73
2019-05-15T12:37:39.912Z,29.17
2019-05-15T12:38:43.835Z,28.68
2019-05-15T12:59:54.973Z,26.34
2019-05-15T13:00:59.662Z,26.82
2019-05-15T13:02:05.227Z,27.07
2019-05-15T13:03:10.477Z,26.96
2019-05-15T13:04:16.057Z,27.54
2019-05-15T13:05:20.762Z,27.72
2019-05-15T13:06:28.344Z,27.22
2019-05-15T13:07:33.131Z,26.71
2019-05-15T13:08:38.802Z,26.51
2019-05-15T13:09:43.912Z,25.78
2019-05-15T13:10:49.511Z,26.61
2019-05-15T13:11:54.514Z,26.54
2019-05-15T13:13:05.142Z,26.78
2019-05-15T13:14:08.181Z,27.20
2019-05-15T13:15:13.462Z,27.25
2019-05-15T13:16:18.873Z,26.39
2019-05-15T13:17:24.573Z,26.83
2019-05-15T13:18:29.264Z,26.87
2019-05-15T13:19:34.545Z,26.77
2019-05-15T13:20:39.684Z,27.07
2019-05-15T13:21:45.778Z,26.91
2019-05-15T13:23:55.784Z,26.74
2019-05-15T13:25:00.906Z,27.12
2019-05-15T13:26:21.493Z,27.00
2019-05-15T13:27:13.501Z,27.02
2019-05-15T13:28:19.026Z,26.81
2019-05-15T13:29:24.027Z,25.53
2019-05-15T13:30:30.151Z,25.88
2019-05-15T13:31:34.942Z,26.48
2019-05-15T13:32:41.382Z,26.82
2019-05-15T13:33:48.101Z,27.14
2019-05-15T13:34:53.451Z,26.84
2019-05-15T13:35:58.722Z,26.89
2019-05-15T13:37:04.275Z,26.94
2019-05-15T13:38:10.230Z,26.61
2019-05-15T13:39:18.405Z,26.72
2019-05-15T13:40:33.999Z,26.60
2019-05-15T13:41:29.808Z,26.29
2019-05-15T13:42:34.278Z,26.75
2019-05-15T13:43:40.123Z,26.86
2019-05-15T13:44:45.128Z,26.96
2019-05-15T13:45:50.416Z,26.61
2019-05-15T13:46:55.225Z,25.86
2019-05-15T13:48:01.400Z,26.55
2019-05-15T13:49:08.355Z,26.31
2019-05-15T13:50:13.791Z,25.67
2019-05-15T13:51:18.408Z,25.90
2019-05-15T13:52:23.765Z,26.18
2019-05-15T13:53:29.033Z,24.92
2019-05-15T13:54:34.279Z,25.43
2019-05-15T13:55:42.581Z,25.73
2019-05-15T13:56:48.633Z,25.58
2019-05-15T13:57:53.446Z,25.55
2019-05-15T13:58:59.159Z,25.67
2019-05-15T14:00:04.205Z,25.62
2019-05-15T14:01:09.768Z,25.98
2019-05-15T14:02:15.064Z,26.30
2019-05-15T14:03:20.678Z,25.88
2019-05-15T14:04:25.658Z,25.41
2019-05-15T14:05:31.211Z,25.82
2019-05-15T14:06:38.028Z,25.36
2019-05-15T14:07:49.371Z,25.85
2019-05-15T14:08:50.400Z,25.77
2019-05-15T14:09:55.756Z,25.54
2019-05-15T14:11:01.938Z,25.74
2019-05-15T14:12:12.096Z,25.00
2019-05-15T14:13:13.351Z,24.87
2019-05-15T14:14:18.617Z,24.66
2019-05-15T14:15:23.063Z,24.58
2019-05-15T14:16:29.191Z,24.80
2019-05-15T14:17:34.022Z,24.20
2019-05-15T14:18:40.161Z,24.99
2019-05-15T14:19:45.431Z,25.18
2019-05-15T14:20:51.245Z,25.27
2019-05-15T14:21:58.454Z,25.34
2019-05-15T14:23:04.080Z,25.46
2019-05-15T14:24:09.178Z,25.55
2019-05-15T14:25:14.852Z,25.43
2019-05-15T14:26:23.064Z,25.73
2019-05-15T14:27:28.897Z,25.21
2019-05-15T14:28:34.365Z,24.50